createdAt,value
2023-01-04T00:00:53.876Z,18.42
2023-01-04T00:03:43.830Z,16.97
2023-01-04T00:06:33.873Z,15.50
2023-01-04T00:09:27.698Z,16.43
2023-01-04T00:12:18.108Z,17.70
2023-01-04T00:15:08.471Z,15.43
2023-01-04T00:17:59.226Z,12.10
2023-01-04T00:20:48.663Z,21.20
2023-01-04T00:23:39.062Z,12.53
2023-01-04T00:26:32.480Z,14.13
2023-01-04T00:29:26.148Z,15.00
2023-01-04T00:32:18.463Z,10.87
2023-01-04T00:35:08.829Z,12.23
2023-01-04T00:37:59.150Z,11.53
2023-01-04T00:59:24.450Z,11.37
2023-01-04T01:02:17.522Z,11.17
2023-01-04T01:05:10.444Z,11.90
2023-01-04T01:08:24.901Z,10.83
2023-01-04T01:42:03.977Z,7.10
2023-01-04T02:03:20.860Z,7.90
2023-01-04T02:06:17.476Z,8.70
2023-01-04T02:09:07.466Z,10.27
2023-01-04T02:21:23.237Z,7.33
2023-01-04T02:35:01.627Z,8.30
2023-01-04T02:42:17.207Z,8.77
2023-01-04T02:54:32.712Z,10.63
2023-01-04T02:57:39.374Z,10.40
2023-01-04T03:09:52.918Z,7.00
2023-01-04T03:55:51.316Z,8.03
2023-01-04T03:58:55.564Z,11.77
2023-01-04T04:01:47.741Z,8.80
2023-01-04T04:04:57.735Z,15.10
2023-01-04T04:17:34.476Z,7.53
2023-01-04T04:20:24.306Z,9.17
2023-01-04T04:29:27.203Z,9.10
2023-01-04T04:32:17.688Z,13.90
2023-01-04T04:35:09.200Z,12.43
2023-01-04T04:37:58.970Z,10.37
2023-01-04T04:41:06.215Z,10.00
2023-01-04T04:43:55.671Z,9.00
2023-01-04T04:46:47.213Z,14.30
2023-01-04T05:14:19.434Z,13.30
2023-01-04T05:17:10.481Z,10.25
2023-01-04T05:20:07.605Z,8.47
2023-01-04T05:22:59.951Z,7.23
2023-01-04T05:25:53.517Z,7.70
2023-01-04T05:28:53.266Z,8.23
2023-01-04T05:50:13.800Z,9.10
2023-01-04T06:08:43.741Z,7.82
2023-01-04T06:11:36.472Z,12.50
2023-01-04T06:14:26.186Z,11.20
2023-01-04T06:17:21.853Z,3.67
2023-01-04T06:20:13.234Z,7.33
2023-01-04T06:23:04.421Z,7.43
2023-01-04T06:25:55.787Z,9.10
2023-01-04T06:32:16.483Z,6.70
2023-01-04T06:35:52.407Z,6.73
2023-01-04T06:46:33.406Z,10.30
2023-01-04T06:49:27.835Z,4.70
2023-01-04T06:52:18.048Z,3.77
2023-01-04T06:55:28.454Z,6.70
2023-01-04T06:58:19.390Z,4.43
2023-01-04T07:01:13.842Z,5.63
2023-01-04T07:04:05.072Z,12.00
2023-01-04T07:06:58.125Z,4.57
2023-01-04T07:10:02.313Z,5.17
2023-01-04T07:12:58.272Z,4.10
2023-01-04T07:15:51.359Z,4.77
2023-01-04T07:18:43.353Z,5.80
2023-01-04T07:25:13.821Z,3.10
2023-01-04T07:28:04.115Z,3.10
2023-01-04T07:30:56.266Z,4.10
2023-01-04T07:56:42.015Z,3.30
2023-01-04T07:59:33.912Z,5.17
2023-01-04T08:02:23.358Z,3.33
2023-01-04T08:05:13.296Z,4.70
2023-01-04T08:08:08.526Z,6.40
2023-01-04T08:11:03.973Z,3.77
2023-01-04T08:14:02.188Z,3.30
2023-01-04T08:16:54.629Z,5.90
2023-01-04T08:19:47.082Z,7.70
2023-01-04T08:22:36.814Z,6.40
2023-01-04T08:25:32.472Z,6.83
2023-01-04T08:33:11.932Z,8.57
2023-01-04T08:36:11.527Z,9.97
2023-01-04T08:39:05.448Z,4.30
2023-01-04T08:42:02.568Z,6.30
2023-01-04T08:54:02.529Z,5.07
2023-01-04T08:56:59.046Z,7.63
2023-01-04T08:59:58.216Z,13.87
2023-01-04T09:02:50.355Z,4.40
2023-01-04T09:05:41.165Z,9.40
2023-01-04T09:08:35.610Z,5.37
2023-01-04T09:11:30.736Z,4.87
2023-01-04T09:14:21.112Z,7.00
2023-01-04T09:17:10.978Z,5.80
2023-01-04T09:20:02.078Z,10.40
2023-01-04T09:22:55.384Z,8.80
2023-01-04T09:25:57.800Z,4.93
2023-01-04T09:28:54.810Z,11.83
2023-01-04T09:32:09.057Z,6.93
2023-01-04T09:35:06.075Z,4.47
2023-01-04T09:37:56.688Z,9.30
2023-01-04T09:40:58.237Z,9.00
2023-01-04T09:44:01.164Z,11.53
2023-01-04T09:46:56.939Z,6.30
2023-01-04T09:49:53.553Z,6.03
2023-01-04T11:20:38.228Z,5.83
2023-01-04T11:52:08.918Z,7.33
2023-01-04T11:55:01.998Z,6.10
2023-01-04T11:58:10.475Z,3.67
2023-01-04T12:01:17.081Z,6.30
2023-01-04T12:04:54.439Z,3.50
2023-01-04T12:07:49.434Z,4.60
2023-01-04T12:10:57.140Z,8.17
2023-01-04T12:20:25.956Z,3.93
2023-01-04T12:23:50.889Z,3.47
2023-01-04T12:26:47.150Z,4.17
2023-01-04T12:29:56.757Z,5.33
2023-01-04T12:32:48.973Z,6.70
2023-01-04T12:36:05.685Z,3.30
2023-01-04T12:39:30.354Z,10.17
2023-01-04T12:42:27.867Z,3.30
2023-01-04T12:45:22.743Z,6.10
2023-01-04T12:48:53.403Z,6.33
2023-01-04T12:51:58.232Z,8.10
2023-01-04T12:54:57.814Z,4.80
2023-01-04T12:57:48.426Z,5.47
2023-01-04T13:07:23.878Z,3.03
2023-01-04T13:13:46.326Z,9.80
2023-01-04T13:16:47.844Z,4.13
2023-01-04T13:53:06.152Z,5.93
2023-01-04T13:56:01.504Z,4.40
2023-01-04T13:58:53.694Z,3.47
2023-01-04T14:01:47.184Z,4.23
2023-01-04T14:04:37.051Z,5.73
2023-01-04T14:07:27.521Z,10.10
2023-01-04T14:10:20.487Z,4.60
2023-01-04T14:13:21.530Z,5.03
2023-01-04T14:16:17.575Z,4.40
2023-01-04T14:19:46.029Z,3.63
2023-01-04T14:22:52.395Z,8.80
2023-01-04T14:25:49.381Z,6.00
2023-01-04T14:28:50.299Z,6.03
2023-01-04T14:32:06.414Z,3.90
2023-01-04T14:35:14.245Z,5.80
2023-01-04T14:38:05.098Z,3.33
2023-01-04T14:41:00.302Z,3.70
2023-01-04T14:43:53.774Z,5.57
2023-01-04T14:46:49.444Z,4.97
2023-01-04T14:49:38.200Z,3.77
2023-01-04T14:52:31.200Z,9.80
2023-01-04T14:55:32.919Z,6.23
2023-01-04T14:58:23.128Z,4.10
2023-01-04T15:01:21.589Z,3.53
2023-01-04T15:04:14.240Z,4.33
2023-01-04T15:07:03.892Z,3.10
2023-01-04T15:09:52.993Z,2.57
2023-01-04T15:12:41.778Z,3.47
2023-01-04T15:15:33.870Z,2.88
2023-01-04T15:22:39.573Z,4.60
2023-01-04T15:26:58.020Z,11.77
2023-01-04T15:30:21.175Z,3.43
2023-01-04T15:33:15.556Z,7.03
2023-01-04T15:36:21.795Z,8.60
2023-01-04T15:39:17.929Z,2.90
2023-01-04T15:42:24.501Z,3.70
2023-01-04T15:45:14.420Z,2.63
2023-01-04T15:48:05.181Z,3.87
2023-01-04T15:50:54.143Z,2.00
2023-01-04T15:53:45.375Z,2.10
2023-01-04T15:56:33.959Z,2.17
